Bear, Idaho
Current Conditions -  °F | °C
As of 4:04 AM on Thursday 23 Oct 2014 (Local Time) from KMYL Reporting Station
Light Rain Light Rain  
Wind Chill: 39°   Ceiling: 3300
Heat Index: 44°   Visibility: 10mi
Dew Point: 41°   Wind: 9mph
Humidity: 89%   Direction: 140°SE
Pressure: 30.02"   Gusts: NA
Location:  44.9328°N, 116.572°W
Report Text: KMYL 231004Z AUTO 14008KT 10SM -RA SCT024 OVC033 07/05 A3002 RMK AO2 P0000 T00670050
Loading
Personal Weather Stations






























Interactive Weather Map
Tropical Storm Tracking
New forecast layout! Learn more

10-Day Weather Forecast

Advertisements
Track Severe Weather on mobile